sensor_id;sensor_type;location;lat;lon;timestamp;P1;durP1;ratioP1;P2;durP2;ratioP2
25409;SDS011;13339;50.840;4.346;2023-07-31T00:02:10;16.57;;;5.10;;
25409;SDS011;13339;50.840;4.346;2023-07-31T00:04:35;17.57;;;5.53;;
25409;SDS011;13339;50.840;4.346;2023-07-31T00:07:01;21.33;;;6.13;;
25409;SDS011;13339;50.840;4.346;2023-07-31T00:09:29;16.60;;;5.63;;
25409;SDS011;13339;50.840;4.346;2023-07-31T00:11:54;20.90;;;6.07;;
25409;SDS011;13339;50.840;4.346;2023-07-31T00:14:20;15.10;;;5.50;;
25409;SDS011;13339;50.840;4.346;2023-07-31T00:16:45;17.80;;;6.07;;
25409;SDS011;13339;50.840;4.346;2023-07-31T00:19:11;22.10;;;6.43;;
25409;SDS011;13339;50.840;4.346;2023-07-31T00:21:37;19.63;;;5.80;;
25409;SDS011;13339;50.840;4.346;2023-07-31T00:24:02;17.57;;;5.97;;
25409;SDS011;13339;50.840;4.346;2023-07-31T00:26:28;22.80;;;6.33;;
25409;SDS011;13339;50.840;4.346;2023-07-31T00:28:53;23.23;;;6.40;;
25409;SDS011;13339;50.840;4.346;2023-07-31T00:31:19;19.50;;;6.40;;
25409;SDS011;13339;50.840;4.346;2023-07-31T00:33:44;16.90;;;5.70;;
25409;SDS011;13339;50.840;4.346;2023-07-31T00:36:10;21.90;;;5.57;;
25409;SDS011;13339;50.840;4.346;2023-07-31T00:38:36;13.90;;;5.87;;
25409;SDS011;13339;50.840;4.346;2023-07-31T00:41:01;12.73;;;5.90;;
25409;SDS011;13339;50.840;4.346;2023-07-31T00:43:27;14.33;;;5.90;;
25409;SDS011;13339;50.840;4.346;2023-07-31T00:45:53;15.83;;;6.10;;
25409;SDS011;13339;50.840;4.346;2023-07-31T00:48:18;16.07;;;5.77;;
25409;SDS011;13339;50.840;4.346;2023-07-31T00:50:44;21.67;;;7.20;;
25409;SDS011;13339;50.840;4.346;2023-07-31T00:53:10;19.00;;;6.20;;
25409;SDS011;13339;50.840;4.346;2023-07-31T00:55:36;14.10;;;5.67;;
25409;SDS011;13339;50.840;4.346;2023-07-31T00:58:01;12.83;;;5.93;;
25409;SDS011;13339;50.840;4.346;2023-07-31T01:00:27;12.23;;;5.73;;
25409;SDS011;13339;50.840;4.346;2023-07-31T01:02:52;12.93;;;5.57;;
25409;SDS011;13339;50.840;4.346;2023-07-31T01:05:19;12.13;;;5.13;;
25409;SDS011;13339;50.840;4.346;2023-07-31T01:08:41;15.57;;;5.60;;
25409;SDS011;13339;50.840;4.346;2023-07-31T01:11:08;14.27;;;5.50;;
25409;SDS011;13339;50.840;4.346;2023-07-31T01:13:40;17.53;;;5.47;;
25409;SDS011;13339;50.840;4.346;2023-07-31T01:16:07;16.13;;;6.00;;
25409;SDS011;13339;50.840;4.346;2023-07-31T01:18:32;18.40;;;5.57;;
25409;SDS011;13339;50.840;4.346;2023-07-31T01:21:03;15.30;;;6.10;;
25409;SDS011;13339;50.840;4.346;2023-07-31T01:26:43;17.30;;;5.80;;
25409;SDS011;13339;50.840;4.346;2023-07-31T01:31:56;16.10;;;5.50;;
25409;SDS011;13339;50.840;4.346;2023-07-31T01:34:27;13.53;;;5.87;;
25409;SDS011;13339;50.840;4.346;2023-07-31T01:36:55;14.93;;;6.03;;
25409;SDS011;13339;50.840;4.346;2023-07-31T01:39:21;13.17;;;5.90;;
25409;SDS011;13339;50.840;4.346;2023-07-31T01:41:46;17.73;;;6.00;;
25409;SDS011;13339;50.840;4.346;2023-07-31T01:44:12;14.50;;;5.67;;
25409;SDS011;13339;50.840;4.346;2023-07-31T01:46:37;20.37;;;6.27;;
25409;SDS011;13339;50.840;4.346;2023-07-31T01:49:03;18.20;;;5.80;;
25409;SDS011;13339;50.840;4.346;2023-07-31T01:51:30;17.50;;;6.03;;
25409;SDS011;13339;50.840;4.346;2023-07-31T01:53:59;23.30;;;7.10;;
25409;SDS011;13339;50.840;4.346;2023-07-31T01:56:27;17.03;;;6.37;;
25409;SDS011;13339;50.840;4.346;2023-07-31T01:58:53;20.33;;;6.30;;
25409;SDS011;13339;50.840;4.346;2023-07-31T02:01:19;16.73;;;6.30;;
25409;SDS011;13339;50.840;4.346;2023-07-31T02:03:44;16.67;;;6.47;;
25409;SDS011;13339;50.840;4.346;2023-07-31T02:06:10;14.37;;;6.63;;
25409;SDS011;13339;50.840;4.346;2023-07-31T02:08:36;11.40;;;6.23;;
25409;SDS011;13339;50.840;4.346;2023-07-31T02:11:01;18.50;;;6.50;;
25409;SDS011;13339;50.840;4.346;2023-07-31T02:13:28;13.93;;;6.57;;
25409;SDS011;13339;50.840;4.346;2023-07-31T02:15:53;13.50;;;6.43;;
25409;SDS011;13339;50.840;4.346;2023-07-31T02:18:19;16.20;;;6.40;;
25409;SDS011;13339;50.840;4.346;2023-07-31T02:20:48;14.87;;;6.87;;
25409;SDS011;13339;50.840;4.346;2023-07-31T02:23:20;11.90;;;6.43;;
25409;SDS011;13339;50.840;4.346;2023-07-31T02:25:46;16.20;;;6.67;;
25409;SDS011;13339;50.840;4.346;2023-07-31T02:28:11;14.30;;;6.57;;
25409;SDS011;13339;50.840;4.346;2023-07-31T02:30:37;14.70;;;6.23;;
25409;SDS011;13339;50.840;4.346;2023-07-31T02:33:03;14.60;;;5.97;;
25409;SDS011;13339;50.840;4.346;2023-07-31T02:35:30;12.07;;;6.20;;
25409;SDS011;13339;50.840;4.346;2023-07-31T02:37:55;8.57;;;5.57;;
25409;SDS011;13339;50.840;4.346;2023-07-31T02:40:21;8.33;;;4.97;;
25409;SDS011;13339;50.840;4.346;2023-07-31T02:42:47;12.00;;;5.77;;
25409;SDS011;13339;50.840;4.346;2023-07-31T02:45:12;11.73;;;5.87;;
25409;SDS011;13339;50.840;4.346;2023-07-31T02:47:38;12.83;;;5.73;;
25409;SDS011;13339;50.840;4.346;2023-07-31T02:50:04;8.77;;;4.87;;
25409;SDS011;13339;50.840;4.346;2023-07-31T02:52:30;9.80;;;5.40;;
25409;SDS011;13339;50.840;4.346;2023-07-31T02:54:55;9.13;;;5.40;;
25409;SDS011;13339;50.840;4.346;2023-07-31T02:57:21;9.77;;;4.90;;
25409;SDS011;13339;50.840;4.346;2023-07-31T02:59:47;7.43;;;5.17;;
25409;SDS011;13339;50.840;4.346;2023-07-31T03:02:13;10.40;;;4.67;;
25409;SDS011;13339;50.840;4.346;2023-07-31T03:04:39;10.23;;;5.10;;
25409;SDS011;13339;50.840;4.346;2023-07-31T03:07:05;14.83;;;5.17;;
25409;SDS011;13339;50.840;4.346;2023-07-31T03:09:30;12.87;;;5.00;;
25409;SDS011;13339;50.840;4.346;2023-07-31T03:11:56;11.40;;;4.67;;
25409;SDS011;13339;50.840;4.346;2023-07-31T03:14:22;10.97;;;4.50;;
25409;SDS011;13339;50.840;4.346;2023-07-31T03:16:47;14.90;;;5.00;;
25409;SDS011;13339;50.840;4.346;2023-07-31T03:19:13;9.60;;;4.70;;
25409;SDS011;13339;50.840;4.346;2023-07-31T03:21:39;10.63;;;4.67;;
25409;SDS011;13339;50.840;4.346;2023-07-31T03:24:04;8.73;;;4.43;;
25409;SDS011;13339;50.840;4.346;2023-07-31T03:26:33;13.00;;;4.70;;
25409;SDS011;13339;50.840;4.346;2023-07-31T03:28:58;9.97;;;5.40;;
25409;SDS011;13339;50.840;4.346;2023-07-31T03:31:24;9.37;;;4.43;;
25409;SDS011;13339;50.840;4.346;2023-07-31T03:33:50;8.47;;;4.50;;
25409;SDS011;13339;50.840;4.346;2023-07-31T03:36:15;12.67;;;5.47;;
25409;SDS011;13339;50.840;4.346;2023-07-31T03:38:41;12.17;;;5.17;;
25409;SDS011;13339;50.840;4.346;2023-07-31T03:41:06;12.70;;;5.83;;
25409;SDS011;13339;50.840;4.346;2023-07-31T03:43:32;10.07;;;5.13;;
25409;SDS011;13339;50.840;4.346;2023-07-31T03:46:01;9.50;;;5.30;;
25409;SDS011;13339;50.840;4.346;2023-07-31T03:48:27;14.33;;;5.50;;
25409;SDS011;13339;50.840;4.346;2023-07-31T03:50:53;11.10;;;5.03;;
25409;SDS011;13339;50.840;4.346;2023-07-31T03:53:19;9.53;;;5.57;;
25409;SDS011;13339;50.840;4.346;2023-07-31T03:55:44;13.27;;;5.30;;
25409;SDS011;13339;50.840;4.346;2023-07-31T03:58:10;9.67;;;5.30;;
25409;SDS011;13339;50.840;4.346;2023-07-31T04:00:36;13.40;;;5.13;;
25409;SDS011;13339;50.840;4.346;2023-07-31T04:03:01;10.23;;;4.80;;
25409;SDS011;13339;50.840;4.346;2023-07-31T04:05:27;15.57;;;5.20;;
25409;SDS011;13339;50.840;4.346;2023-07-31T04:07:54;15.97;;;5.10;;
25409;SDS011;13339;50.840;4.346;2023-07-31T04:10:20;8.60;;;4.73;;
25409;SDS011;13339;50.840;4.346;2023-07-31T04:12:46;13.00;;;4.73;;
25409;SDS011;13339;50.840;4.346;2023-07-31T04:15:11;8.50;;;4.60;;
25409;SDS011;13339;50.840;4.346;2023-07-31T04:17:37;13.67;;;5.13;;
25409;SDS011;13339;50.840;4.346;2023-07-31T04:20:02;8.43;;;4.63;;
25409;SDS011;13339;50.840;4.346;2023-07-31T04:22:28;14.87;;;5.53;;
25409;SDS011;13339;50.840;4.346;2023-07-31T04:24:54;10.03;;;4.70;;
25409;SDS011;13339;50.840;4.346;2023-07-31T04:27:19;8.47;;;4.50;;
25409;SDS011;13339;50.840;4.346;2023-07-31T04:29:45;13.17;;;4.50;;
25409;SDS011;13339;50.840;4.346;2023-07-31T04:32:12;11.60;;;5.00;;
25409;SDS011;13339;50.840;4.346;2023-07-31T04:34:38;9.70;;;4.60;;
25409;SDS011;13339;50.840;4.346;2023-07-31T04:37:03;9.97;;;4.53;;
25409;SDS011;13339;50.840;4.346;2023-07-31T04:39:29;12.70;;;4.93;;
25409;SDS011;13339;50.840;4.346;2023-07-31T04:41:55;10.27;;;4.70;;
25409;SDS011;13339;50.840;4.346;2023-07-31T04:44:20;8.87;;;4.67;;
25409;SDS011;13339;50.840;4.346;2023-07-31T04:46:46;9.57;;;4.60;;
25409;SDS011;13339;50.840;4.346;2023-07-31T04:49:11;9.53;;;4.43;;
25409;SDS011;13339;50.840;4.346;2023-07-31T04:51:37;10.20;;;5.07;;
25409;SDS011;13339;50.840;4.346;2023-07-31T04:54:02;9.37;;;4.93;;
25409;SDS011;13339;50.840;4.346;2023-07-31T04:56:28;8.67;;;4.50;;
25409;SDS011;13339;50.840;4.346;2023-07-31T04:58:54;13.20;;;4.83;;
25409;SDS011;13339;50.840;4.346;2023-07-31T05:01:19;11.10;;;5.10;;
25409;SDS011;13339;50.840;4.346;2023-07-31T05:03:45;12.80;;;5.40;;
25409;SDS011;13339;50.840;4.346;2023-07-31T05:06:11;8.90;;;4.50;;
25409;SDS011;13339;50.840;4.346;2023-07-31T05:08:38;14.97;;;5.13;;
25409;SDS011;13339;50.840;4.346;2023-07-31T05:11:04;10.50;;;4.57;;
25409;SDS011;13339;50.840;4.346;2023-07-31T05:13:29;9.47;;;5.10;;
25409;SDS011;13339;50.840;4.346;2023-07-31T05:15:55;5.67;;;4.60;;
25409;SDS011;13339;50.840;4.346;2023-07-31T05:18:20;7.13;;;4.67;;
25409;SDS011;13339;50.840;4.346;2023-07-31T05:20:46;10.17;;;4.57;;
25409;SDS011;13339;50.840;4.346;2023-07-31T05:23:11;8.27;;;4.80;;
25409;SDS011;13339;50.840;4.346;2023-07-31T05:25:37;10.47;;;4.63;;
25409;SDS011;13339;50.840;4.346;2023-07-31T05:28:03;7.53;;;4.30;;
25409;SDS011;13339;50.840;4.346;2023-07-31T05:30:31;9.07;;;4.23;;
25409;SDS011;13339;50.840;4.346;2023-07-31T05:32:57;9.60;;;4.60;;
25409;SDS011;13339;50.840;4.346;2023-07-31T05:35:23;11.70;;;4.60;;
25409;SDS011;13339;50.840;4.346;2023-07-31T05:37:48;12.67;;;5.07;;
25409;SDS011;13339;50.840;4.346;2023-07-31T05:40:14;10.63;;;4.60;;
25409;SDS011;13339;50.840;4.346;2023-07-31T05:42:40;10.27;;;4.50;;
25409;SDS011;13339;50.840;4.346;2023-07-31T05:45:06;14.03;;;4.60;;
25409;SDS011;13339;50.840;4.346;2023-07-31T05:47:32;12.77;;;4.97;;
25409;SDS011;13339;50.840;4.346;2023-07-31T05:49:57;6.90;;;4.20;;
25409;SDS011;13339;50.840;4.346;2023-07-31T05:52:23;8.97;;;4.40;;
25409;SDS011;13339;50.840;4.346;2023-07-31T05:54:49;11.70;;;5.57;;
25409;SDS011;13339;50.840;4.346;2023-07-31T05:57:15;11.70;;;4.70;;
25409;SDS011;13339;50.840;4.346;2023-07-31T05:59:41;15.03;;;4.70;;
25409;SDS011;13339;50.840;4.346;2023-07-31T06:02:06;14.80;;;5.37;;
25409;SDS011;13339;50.840;4.346;2023-07-31T06:04:32;8.67;;;4.70;;
25409;SDS011;13339;50.840;4.346;2023-07-31T06:06:58;10.57;;;4.90;;
25409;SDS011;13339;50.840;4.346;2023-07-31T06:09:23;7.60;;;4.40;;
25409;SDS011;13339;50.840;4.346;2023-07-31T06:11:50;15.10;;;5.00;;
25409;SDS011;13339;50.840;4.346;2023-07-31T06:14:16;9.57;;;4.87;;
25409;SDS011;13339;50.840;4.346;2023-07-31T06:16:42;8.70;;;4.43;;
25409;SDS011;13339;50.840;4.346;2023-07-31T06:19:09;7.70;;;4.23;;
25409;SDS011;13339;50.840;4.346;2023-07-31T06:21:34;10.90;;;4.63;;
25409;SDS011;13339;50.840;4.346;2023-07-31T06:24:02;7.70;;;4.50;;
25409;SDS011;13339;50.840;4.346;2023-07-31T06:26:28;11.77;;;4.80;;
25409;SDS011;13339;50.840;4.346;2023-07-31T06:28:54;10.03;;;4.50;;
25409;SDS011;13339;50.840;4.346;2023-07-31T06:31:19;12.13;;;4.53;;
25409;SDS011;13339;50.840;4.346;2023-07-31T06:33:48;8.87;;;4.70;;
25409;SDS011;13339;50.840;4.346;2023-07-31T06:36:14;7.97;;;4.33;;
25409;SDS011;13339;50.840;4.346;2023-07-31T06:38:39;12.03;;;5.27;;
25409;SDS011;13339;50.840;4.346;2023-07-31T06:41:05;9.43;;;4.13;;
25409;SDS011;13339;50.840;4.346;2023-07-31T06:43:30;10.50;;;4.70;;
25409;SDS011;13339;50.840;4.346;2023-07-31T06:45:56;14.10;;;4.80;;
25409;SDS011;13339;50.840;4.346;2023-07-31T06:48:22;7.83;;;4.20;;
25409;SDS011;13339;50.840;4.346;2023-07-31T06:50:47;8.20;;;4.63;;
25409;SDS011;13339;50.840;4.346;2023-07-31T06:53:13;12.57;;;4.73;;
25409;SDS011;13339;50.840;4.346;2023-07-31T06:55:38;9.03;;;4.27;;
25409;SDS011;13339;50.840;4.346;2023-07-31T06:58:04;8.90;;;4.03;;
25409;SDS011;13339;50.840;4.346;2023-07-31T07:00:30;8.60;;;3.70;;
25409;SDS011;13339;50.840;4.346;2023-07-31T07:02:55;9.40;;;4.20;;
25409;SDS011;13339;50.840;4.346;2023-07-31T07:05:21;9.47;;;4.13;;
25409;SDS011;13339;50.840;4.346;2023-07-31T07:07:48;6.37;;;3.67;;
25409;SDS011;13339;50.840;4.346;2023-07-31T07:10:15;8.20;;;4.03;;
25409;SDS011;13339;50.840;4.346;2023-07-31T07:12:40;10.30;;;4.13;;
25409;SDS011;13339;50.840;4.346;2023-07-31T07:15:06;12.57;;;4.00;;
25409;SDS011;13339;50.840;4.346;2023-07-31T07:17:33;8.40;;;3.47;;
25409;SDS011;13339;50.840;4.346;2023-07-31T07:19:59;11.70;;;4.47;;
25409;SDS011;13339;50.840;4.346;2023-07-31T07:22:25;8.87;;;3.53;;
25409;SDS011;13339;50.840;4.346;2023-07-31T07:24:52;8.80;;;3.90;;
25409;SDS011;13339;50.840;4.346;2023-07-31T07:27:18;8.80;;;4.13;;
25409;SDS011;13339;50.840;4.346;2023-07-31T07:29:43;11.60;;;4.07;;
25409;SDS011;13339;50.840;4.346;2023-07-31T07:32:10;9.40;;;4.20;;
25409;SDS011;13339;50.840;4.346;2023-07-31T07:34:36;5.80;;;3.50;;
25409;SDS011;13339;50.840;4.346;2023-07-31T07:37:02;7.47;;;4.20;;
25409;SDS011;13339;50.840;4.346;2023-07-31T07:39:28;10.77;;;3.47;;
25409;SDS011;13339;50.840;4.346;2023-07-31T07:41:54;12.10;;;4.17;;
25409;SDS011;13339;50.840;4.346;2023-07-31T07:44:19;11.37;;;4.40;;
25409;SDS011;13339;50.840;4.346;2023-07-31T07:46:45;7.77;;;3.53;;
25409;SDS011;13339;50.840;4.346;2023-07-31T07:49:10;8.30;;;3.83;;
25409;SDS011;13339;50.840;4.346;2023-07-31T07:51:36;10.73;;;4.00;;
25409;SDS011;13339;50.840;4.346;2023-07-31T07:54:02;11.33;;;3.57;;
25409;SDS011;13339;50.840;4.346;2023-07-31T07:56:27;9.23;;;3.73;;
25409;SDS011;13339;50.840;4.346;2023-07-31T07:58:53;8.63;;;3.60;;
25409;SDS011;13339;50.840;4.346;2023-07-31T08:01:19;6.70;;;3.60;;
25409;SDS011;13339;50.840;4.346;2023-07-31T08:03:46;10.90;;;4.17;;
25409;SDS011;13339;50.840;4.346;2023-07-31T08:06:12;9.33;;;3.87;;
25409;SDS011;13339;50.840;4.346;2023-07-31T08:08:38;11.53;;;4.03;;
25409;SDS011;13339;50.840;4.346;2023-07-31T08:11:03;8.67;;;3.77;;
25409;SDS011;13339;50.840;4.346;2023-07-31T08:13:29;8.50;;;3.93;;
25409;SDS011;13339;50.840;4.346;2023-07-31T08:15:55;11.07;;;3.70;;
25409;SDS011;13339;50.840;4.346;2023-07-31T08:18:21;7.07;;;3.60;;
25409;SDS011;13339;50.840;4.346;2023-07-31T08:20:46;7.77;;;3.60;;
25409;SDS011;13339;50.840;4.346;2023-07-31T08:23:12;6.63;;;3.73;;
25409;SDS011;13339;50.840;4.346;2023-07-31T08:25:38;7.20;;;3.67;;
25409;SDS011;13339;50.840;4.346;2023-07-31T08:28:04;7.73;;;2.90;;
25409;SDS011;13339;50.840;4.346;2023-07-31T08:30:31;7.07;;;4.00;;
25409;SDS011;13339;50.840;4.346;2023-07-31T08:32:58;7.80;;;3.80;;
25409;SDS011;13339;50.840;4.346;2023-07-31T08:35:24;12.33;;;4.07;;
25409;SDS011;13339;50.840;4.346;2023-07-31T08:37:53;11.03;;;3.80;;
25409;SDS011;13339;50.840;4.346;2023-07-31T08:40:18;7.20;;;3.93;;
25409;SDS011;13339;50.840;4.346;2023-07-31T08:42:45;6.60;;;3.63;;
25409;SDS011;13339;50.840;4.346;2023-07-31T08:45:13;9.83;;;4.23;;
25409;SDS011;13339;50.840;4.346;2023-07-31T08:47:41;7.43;;;3.97;;
25409;SDS011;13339;50.840;4.346;2023-07-31T08:50:10;10.90;;;3.73;;
25409;SDS011;13339;50.840;4.346;2023-07-31T08:52:37;6.10;;;3.50;;
25409;SDS011;13339;50.840;4.346;2023-07-31T08:55:04;6.70;;;3.90;;
25409;SDS011;13339;50.840;4.346;2023-07-31T08:57:30;8.97;;;4.30;;
25409;SDS011;13339;50.840;4.346;2023-07-31T08:59:56;6.10;;;3.47;;
25409;SDS011;13339;50.840;4.346;2023-07-31T09:02:22;10.30;;;3.40;;
25409;SDS011;13339;50.840;4.346;2023-07-31T09:04:51;9.37;;;3.93;;
25409;SDS011;13339;50.840;4.346;2023-07-31T09:07:16;6.60;;;3.80;;
25409;SDS011;13339;50.840;4.346;2023-07-31T09:09:42;10.70;;;4.27;;
25409;SDS011;13339;50.840;4.346;2023-07-31T09:12:08;9.60;;;4.27;;
25409;SDS011;13339;50.840;4.346;2023-07-31T09:14:34;10.40;;;4.23;;
25409;SDS011;13339;50.840;4.346;2023-07-31T09:17:00;8.13;;;3.83;;
25409;SDS011;13339;50.840;4.346;2023-07-31T09:21:58;9.53;;;4.37;;
25409;SDS011;13339;50.840;4.346;2023-07-31T09:24:25;9.00;;;3.77;;
25409;SDS011;13339;50.840;4.346;2023-07-31T09:26:55;7.50;;;3.90;;
25409;SDS011;13339;50.840;4.346;2023-07-31T09:29:22;10.40;;;4.40;;
25409;SDS011;13339;50.840;4.346;2023-07-31T09:31:48;7.90;;;4.07;;
25409;SDS011;13339;50.840;4.346;2023-07-31T09:34:13;13.57;;;5.17;;
25409;SDS011;13339;50.840;4.346;2023-07-31T09:36:47;7.67;;;4.87;;
25409;SDS011;13339;50.840;4.346;2023-07-31T09:39:14;11.53;;;4.47;;
25409;SDS011;13339;50.840;4.346;2023-07-31T09:41:42;10.50;;;4.80;;
25409;SDS011;13339;50.840;4.346;2023-07-31T09:44:20;9.27;;;4.70;;
25409;SDS011;13339;50.840;4.346;2023-07-31T09:46:46;12.03;;;5.30;;
25409;SDS011;13339;50.840;4.346;2023-07-31T09:49:12;9.50;;;4.80;;
25409;SDS011;13339;50.840;4.346;2023-07-31T09:51:39;9.47;;;4.80;;
25409;SDS011;13339;50.840;4.346;2023-07-31T09:56:44;9.43;;;5.37;;
25409;SDS011;13339;50.840;4.346;2023-07-31T09:59:12;12.53;;;5.40;;
25409;SDS011;13339;50.840;4.346;2023-07-31T10:01:42;9.00;;;4.93;;
25409;SDS011;13339;50.840;4.346;2023-07-31T10:04:10;10.97;;;5.47;;
25409;SDS011;13339;50.840;4.346;2023-07-31T10:06:36;14.70;;;5.57;;
25409;SDS011;13339;50.840;4.346;2023-07-31T10:09:07;11.17;;;5.63;;
25409;SDS011;13339;50.840;4.346;2023-07-31T10:11:41;11.97;;;5.50;;
25409;SDS011;13339;50.840;4.346;2023-07-31T10:14:09;16.73;;;6.77;;
25409;SDS011;13339;50.840;4.346;2023-07-31T10:16:37;9.57;;;5.77;;
25409;SDS011;13339;50.840;4.346;2023-07-31T10:19:03;12.87;;;5.73;;
25409;SDS011;13339;50.840;4.346;2023-07-31T10:21:29;15.77;;;6.23;;
25409;SDS011;13339;50.840;4.346;2023-07-31T10:23:59;16.47;;;6.27;;
25409;SDS011;13339;50.840;4.346;2023-07-31T10:26:28;13.77;;;5.90;;
25409;SDS011;13339;50.840;4.346;2023-07-31T10:28:55;11.87;;;6.00;;
25409;SDS011;13339;50.840;4.346;2023-07-31T10:31:22;13.13;;;5.83;;
25409;SDS011;13339;50.840;4.346;2023-07-31T10:33:50;14.60;;;6.30;;
25409;SDS011;13339;50.840;4.346;2023-07-31T10:36:17;11.67;;;6.00;;
25409;SDS011;13339;50.840;4.346;2023-07-31T10:38:44;9.17;;;5.37;;
25409;SDS011;13339;50.840;4.346;2023-07-31T10:41:10;12.20;;;5.53;;
25409;SDS011;13339;50.840;4.346;2023-07-31T10:43:36;13.43;;;5.83;;
25409;SDS011;13339;50.840;4.346;2023-07-31T10:46:12;13.13;;;5.50;;
25409;SDS011;13339;50.840;4.346;2023-07-31T10:48:39;11.60;;;5.60;;
25409;SDS011;13339;50.840;4.346;2023-07-31T10:51:12;11.63;;;5.63;;
25409;SDS011;13339;50.840;4.346;2023-07-31T10:53:38;10.90;;;5.63;;
25409;SDS011;13339;50.840;4.346;2023-07-31T10:56:06;11.90;;;5.67;;
25409;SDS011;13339;50.840;4.346;2023-07-31T10:58:38;13.63;;;5.23;;
25409;SDS011;13339;50.840;4.346;2023-07-31T11:01:04;11.90;;;5.33;;
25409;SDS011;13339;50.840;4.346;2023-07-31T11:03:44;12.27;;;5.80;;
25409;SDS011;13339;50.840;4.346;2023-07-31T11:06:11;12.67;;;6.10;;
25409;SDS011;13339;50.840;4.346;2023-07-31T11:08:47;17.97;;;5.53;;
25409;SDS011;13339;50.840;4.346;2023-07-31T11:11:14;11.37;;;5.47;;
25409;SDS011;13339;50.840;4.346;2023-07-31T11:13:45;11.77;;;5.70;;
25409;SDS011;13339;50.840;4.346;2023-07-31T11:16:14;10.93;;;5.83;;
25409;SDS011;13339;50.840;4.346;2023-07-31T11:18:42;14.90;;;5.90;;
25409;SDS011;13339;50.840;4.346;2023-07-31T11:21:16;11.87;;;6.00;;
25409;SDS011;13339;50.840;4.346;2023-07-31T11:23:47;12.73;;;5.00;;
25409;SDS011;13339;50.840;4.346;2023-07-31T11:26:14;12.30;;;5.30;;
25409;SDS011;13339;50.840;4.346;2023-07-31T11:28:40;10.90;;;5.40;;
25409;SDS011;13339;50.840;4.346;2023-07-31T11:31:08;14.20;;;5.67;;
25409;SDS011;13339;50.840;4.346;2023-07-31T11:33:35;11.97;;;5.63;;
25409;SDS011;13339;50.840;4.346;2023-07-31T11:36:00;19.47;;;5.53;;
25409;SDS011;13339;50.840;4.346;2023-07-31T11:38:32;12.03;;;5.50;;
25409;SDS011;13339;50.840;4.346;2023-07-31T11:40:59;16.27;;;6.60;;
25409;SDS011;13339;50.840;4.346;2023-07-31T11:43:28;9.97;;;5.43;;
25409;SDS011;13339;50.840;4.346;2023-07-31T11:45:56;11.33;;;5.70;;
25409;SDS011;13339;50.840;4.346;2023-07-31T11:48:27;12.57;;;5.60;;
25409;SDS011;13339;50.840;4.346;2023-07-31T11:51:01;10.53;;;5.57;;
25409;SDS011;13339;50.840;4.346;2023-07-31T11:55:57;8.93;;;5.40;;
25409;SDS011;13339;50.840;4.346;2023-07-31T11:58:24;10.77;;;5.17;;
25409;SDS011;13339;50.840;4.346;2023-07-31T12:00:51;11.20;;;5.30;;
25409;SDS011;13339;50.840;4.346;2023-07-31T12:03:17;9.80;;;5.20;;
25409;SDS011;13339;50.840;4.346;2023-07-31T12:05:43;11.87;;;6.20;;
25409;SDS011;13339;50.840;4.346;2023-07-31T12:08:11;15.00;;;5.60;;
25409;SDS011;13339;50.840;4.346;2023-07-31T12:10:37;10.47;;;5.37;;
25409;SDS011;13339;50.840;4.346;2023-07-31T12:13:07;15.73;;;5.60;;
25409;SDS011;13339;50.840;4.346;2023-07-31T12:15:44;12.43;;;5.43;;
25409;SDS011;13339;50.840;4.346;2023-07-31T12:18:15;12.97;;;5.40;;
25409;SDS011;13339;50.840;4.346;2023-07-31T12:20:45;9.67;;;5.27;;
25409;SDS011;13339;50.840;4.346;2023-07-31T12:28:36;14.90;;;5.77;;
25409;SDS011;13339;50.840;4.346;2023-07-31T12:31:05;10.77;;;5.70;;
25409;SDS011;13339;50.840;4.346;2023-07-31T12:33:33;14.17;;;5.43;;
25409;SDS011;13339;50.840;4.346;2023-07-31T12:36:04;12.97;;;5.10;;
25409;SDS011;13339;50.840;4.346;2023-07-31T12:38:32;13.83;;;6.07;;
25409;SDS011;13339;50.840;4.346;2023-07-31T12:40:58;11.30;;;5.60;;
25409;SDS011;13339;50.840;4.346;2023-07-31T12:43:24;11.80;;;5.53;;
25409;SDS011;13339;50.840;4.346;2023-07-31T12:45:50;12.77;;;5.43;;
25409;SDS011;13339;50.840;4.346;2023-07-31T12:48:15;11.27;;;5.37;;
25409;SDS011;13339;50.840;4.346;2023-07-31T12:50:41;13.17;;;5.40;;
25409;SDS011;13339;50.840;4.346;2023-07-31T12:53:06;11.20;;;5.23;;
25409;SDS011;13339;50.840;4.346;2023-07-31T12:55:32;12.47;;;5.40;;
25409;SDS011;13339;50.840;4.346;2023-07-31T12:57:59;13.70;;;6.17;;
25409;SDS011;13339;50.840;4.346;2023-07-31T13:00:25;10.43;;;5.57;;
25409;SDS011;13339;50.840;4.346;2023-07-31T13:02:51;9.80;;;4.63;;
25409;SDS011;13339;50.840;4.346;2023-07-31T13:05:17;9.33;;;5.00;;
25409;SDS011;13339;50.840;4.346;2023-07-31T13:07:47;14.63;;;4.30;;
25409;SDS011;13339;50.840;4.346;2023-07-31T13:10:13;9.23;;;4.33;;
25409;SDS011;13339;50.840;4.346;2023-07-31T13:12:38;9.23;;;4.13;;
25409;SDS011;13339;50.840;4.346;2023-07-31T13:15:04;6.53;;;3.50;;
25409;SDS011;13339;50.840;4.346;2023-07-31T13:17:31;7.40;;;3.67;;
25409;SDS011;13339;50.840;4.346;2023-07-31T13:19:56;6.27;;;3.73;;
25409;SDS011;13339;50.840;4.346;2023-07-31T13:22:22;8.20;;;3.60;;
25409;SDS011;13339;50.840;4.346;2023-07-31T13:24:48;8.30;;;4.07;;
25409;SDS011;13339;50.840;4.346;2023-07-31T13:27:14;6.47;;;4.23;;
25409;SDS011;13339;50.840;4.346;2023-07-31T13:29:43;8.90;;;4.33;;
25409;SDS011;13339;50.840;4.346;2023-07-31T13:32:09;6.20;;;4.00;;
25409;SDS011;13339;50.840;4.346;2023-07-31T13:34:39;7.70;;;4.00;;
25409;SDS011;13339;50.840;4.346;2023-07-31T13:37:05;7.60;;;4.17;;
25409;SDS011;13339;50.840;4.346;2023-07-31T13:39:34;9.53;;;4.30;;
25409;SDS011;13339;50.840;4.346;2023-07-31T13:42:00;12.10;;;4.43;;
25409;SDS011;13339;50.840;4.346;2023-07-31T13:44:27;9.83;;;4.40;;
25409;SDS011;13339;50.840;4.346;2023-07-31T13:46:52;8.67;;;4.10;;
25409;SDS011;13339;50.840;4.346;2023-07-31T13:49:18;9.43;;;4.40;;
25409;SDS011;13339;50.840;4.346;2023-07-31T13:51:43;7.53;;;4.33;;
25409;SDS011;13339;50.840;4.346;2023-07-31T13:54:09;11.00;;;4.57;;
25409;SDS011;13339;50.840;4.346;2023-07-31T13:56:36;6.70;;;4.03;;
25409;SDS011;13339;50.840;4.346;2023-07-31T13:59:02;10.00;;;5.33;;
25409;SDS011;13339;50.840;4.346;2023-07-31T14:01:28;11.70;;;5.13;;
25409;SDS011;13339;50.840;4.346;2023-07-31T14:03:53;8.90;;;3.90;;
25409;SDS011;13339;50.840;4.346;2023-07-31T14:06:19;8.00;;;4.43;;
25409;SDS011;13339;50.840;4.346;2023-07-31T14:08:45;13.33;;;4.70;;
25409;SDS011;13339;50.840;4.346;2023-07-31T14:11:10;7.00;;;4.30;;
25409;SDS011;13339;50.840;4.346;2023-07-31T14:13:36;6.70;;;4.40;;
25409;SDS011;13339;50.840;4.346;2023-07-31T14:16:01;8.37;;;4.80;;
25409;SDS011;13339;50.840;4.346;2023-07-31T14:18:27;9.50;;;4.60;;
25409;SDS011;13339;50.840;4.346;2023-07-31T14:20:53;7.43;;;4.87;;
25409;SDS011;13339;50.840;4.346;2023-07-31T14:23:18;6.20;;;4.23;;
25409;SDS011;13339;50.840;4.346;2023-07-31T14:25:45;8.50;;;4.73;;
25409;SDS011;13339;50.840;4.346;2023-07-31T14:28:11;7.20;;;3.90;;
25409;SDS011;13339;50.840;4.346;2023-07-31T14:30:36;8.07;;;4.20;;
25409;SDS011;13339;50.840;4.346;2023-07-31T14:33:02;5.43;;;4.03;;
25409;SDS011;13339;50.840;4.346;2023-07-31T14:35:28;5.40;;;3.90;;
25409;SDS011;13339;50.840;4.346;2023-07-31T14:37:53;9.70;;;4.57;;
25409;SDS011;13339;50.840;4.346;2023-07-31T14:40:19;6.03;;;3.90;;
25409;SDS011;13339;50.840;4.346;2023-07-31T14:42:45;6.80;;;3.57;;
25409;SDS011;13339;50.840;4.346;2023-07-31T14:45:10;5.57;;;2.80;;
25409;SDS011;13339;50.840;4.346;2023-07-31T14:47:36;6.00;;;3.43;;
25409;SDS011;13339;50.840;4.346;2023-07-31T14:50:02;4.73;;;3.27;;
25409;SDS011;13339;50.840;4.346;2023-07-31T14:52:28;8.53;;;5.13;;
25409;SDS011;13339;50.840;4.346;2023-07-31T14:54:54;7.57;;;4.27;;
25409;SDS011;13339;50.840;4.346;2023-07-31T14:57:19;7.30;;;3.97;;